Terminal Aerodrome Forecast
Issued by NWS

Home | Current Version | Previous Version | Text Only | Print | Product List | Glossary On
Versions: 1 2 3 4 5 6 7 8 9 10 11 12 13 14 15 16 17
000
FTUS41 KBGM 282344
TAFRME
TAF
KRME 282344Z 2900/2924 09004KT P6SM OVC250
     FM290900 09006KT P6SM -SHRA BKN040 OVC100
     FM291700 01006KT P6SM BKN090
     FM292100 34007KT P6SM SCT200=

USA.gov is the U.S. government's official web portal to all federal, state and local government web resources and services.